Time;durP1;ratioP1;P1;durP2;ratioP2;P2;SDS_P1;SDS_P2;PMS_P1;PMS_P2;Temp;Humidity;BMP_temperature;BMP_pressure;BME280_temperature;BME280_humidity;BME280_pressure;Samples;Min_cycle;Max_cycle;Signal;HPM_P1;HPM_P2
2022/08/27 00:00:52;;;;;;;0.25;0.25;;;;;;;20.81;58.96;101065.28;5164064;28;20041;-78
2022/08/27 00:03:25;;;;;;;1.05;0.57;;;;;;;20.80;59.44;101064.44;5150748;28;20060;-78
2022/08/27 00:05:59;;;;;;;0.20;0.20;;;;;;;20.79;59.39;101059.19;5151766;28;20053;-78
2022/08/27 00:08:30;;;;;;;0.30;0.30;;;;;;;20.75;59.31;101062.06;5168489;28;20026;-78
2022/08/27 00:11:03;;;;;;;3.53;0.40;;;;;;;20.78;59.30;101054.84;5196058;28;20050;-78
2022/08/27 00:13:35;;;;;;;0.55;0.55;;;;;;;20.75;59.06;101051.41;5152982;28;20542;-78
2022/08/27 00:16:11;;;;;;;0.35;0.35;;;;;;;20.74;58.95;101055.03;5169859;28;20036;-77
2022/08/27 00:18:44;;;;;;;1.20;1.10;;;;;;;20.72;59.85;101050.72;5156513;28;20760;-78
2022/08/27 00:21:18;;;;;;;0.20;0.20;;;;;;;20.71;59.60;101051.69;5134966;28;20083;-78
2022/08/27 00:23:49;;;;;;;9.90;1.33;;;;;;;20.73;59.32;101042.66;5167701;28;20088;-77
2022/08/27 00:26:19;;;;;;;0.30;0.30;;;;;;;20.72;59.36;101045.38;5162581;28;20033;-77
2022/08/27 00:28:54;;;;;;;0.40;0.40;;;;;;;20.71;58.88;101049.00;5190668;28;20145;-78
2022/08/27 00:31:24;;;;;;;0.20;0.20;;;;;;;20.67;59.87;101056.34;5169518;28;20042;-77
2022/08/27 00:33:55;;;;;;;0.32;0.32;;;;;;;20.68;59.97;101046.53;5142527;28;20034;-78
2022/08/27 00:36:26;;;;;;;0.80;0.45;;;;;;;20.65;59.49;101039.59;5169510;28;20291;-78
2022/08/27 00:38:56;;;;;;;0.20;0.20;;;;;;;20.65;59.32;101044.09;5178287;28;20054;-78
2022/08/27 00:41:27;;;;;;;0.20;0.20;;;;;;;20.71;59.55;101041.84;5183290;28;20034;-78
2022/08/27 00:44:00;;;;;;;1.98;1.08;;;;;;;20.69;58.79;101046.44;5168358;28;20395;-78
2022/08/27 00:46:48;;;;;;;0.90;0.90;;;;;;;20.61;60.15;101043.44;5190482;28;20029;-78
2022/08/27 00:49:23;;;;;;;0.30;0.30;;;;;;;20.59;59.37;101034.66;5161820;28;20101;-78
2022/08/27 00:52:04;;;;;;;0.30;0.30;;;;;;;20.65;59.05;101044.09;5165421;28;20503;-77
2022/08/27 00:54:38;;;;;;;0.75;0.50;;;;;;;20.63;58.84;101036.16;5143708;28;20096;-78
2022/08/27 00:57:09;;;;;;;0.52;0.40;;;;;;;20.54;59.81;101031.41;5168758;28;20030;-78
2022/08/27 00:59:42;;;;;;;0.52;0.52;;;;;;;20.52;59.39;101044.00;5184134;28;20073;-78
2022/08/27 01:02:18;;;;;;;0.27;0.27;;;;;;;20.50;59.18;101040.56;5169006;28;20048;-78
2022/08/27 01:04:57;;;;;;;0.20;0.20;;;;;;;20.49;59.28;101041.53;5183543;28;20291;-78
2022/08/27 01:07:30;;;;;;;0.22;0.22;;;;;;;20.44;59.51;101034.69;5166631;28;20042;-77
2022/08/27 01:10:06;;;;;;;;;;;;;;;20.48;59.74;101047.81;5184153;28;20368;-78
2022/08/27 01:12:37;;;;;;;0.20;0.20;;;;;;;20.44;58.99;101042.69;5149471;28;19924;-77
2022/08/27 01:15:14;;;;;;;0.20;0.20;;;;;;;20.44;58.71;101042.69;5172595;28;20041;-78
2022/08/27 01:17:46;;;;;;;1.02;0.50;;;;;;;20.41;59.26;101034.88;5174872;28;20042;-78
2022/08/27 01:20:25;;;;;;;0.30;0.30;;;;;;;20.41;58.82;101048.22;5135238;28;20030;-78
2022/08/27 01:23:15;;;;;;;0.20;0.20;;;;;;;20.38;59.28;101043.06;5151829;28;20081;-78
2022/08/27 01:25:46;;;;;;;0.20;0.20;;;;;;;20.39;59.14;101036.78;5154423;28;20029;-78
2022/08/27 01:28:18;;;;;;;0.20;0.20;;;;;;;20.36;59.25;101034.34;5167286;28;20037;-77
2022/08/27 01:30:49;;;;;;;0.55;0.55;;;;;;;20.36;59.78;101037.00;5164809;28;20033;-78
2022/08/27 01:33:23;;;;;;;0.38;0.38;;;;;;;20.35;60.04;101040.63;5167590;28;20046;-77
2022/08/27 01:35:54;;;;;;;0.47;0.47;;;;;;;20.34;59.44;101038.91;5157876;28;20041;-78
2022/08/27 01:38:26;;;;;;;1.33;0.50;;;;;;;20.31;60.26;101033.75;5175568;28;20102;-78
2022/08/27 01:40:58;;;;;;;0.68;0.68;;;;;;;20.37;59.55;101029.84;5172355;28;20097;-78
2022/08/27 01:43:29;;;;;;;1.00;0.82;;;;;;;20.31;59.75;101025.75;5172921;28;20042;-78
2022/08/27 01:46:03;;;;;;;0.82;0.65;;;;;;;20.30;60.05;101029.38;5171586;28;20040;-78
2022/08/27 01:48:37;;;;;;;0.30;0.30;;;;;;;20.27;59.54;101032.25;5159616;28;20709;-78
2022/08/27 01:51:08;;;;;;;0.32;0.32;;;;;;;20.21;59.91;101030.81;5172432;28;20094;-78
2022/08/27 01:53:41;;;;;;;0.63;0.63;;;;;;;20.27;59.23;101026.91;5166978;28;20538;-77
2022/08/27 01:56:12;;;;;;;0.55;0.55;;;;;;;20.24;59.40;101024.44;5187725;28;20034;-78
2022/08/27 01:58:46;;;;;;;0.20;0.20;;;;;;;20.22;59.75;101015.69;5141999;28;20121;-77
2022/08/27 02:01:16;;;;;;;12.80;0.98;;;;;;;20.17;59.38;101015.97;5171189;28;20030;-77
2022/08/27 02:03:47;;;;;;;0.40;0.40;;;;;;;20.08;60.19;101020.06;5165860;28;20462;-78
2022/08/27 02:06:18;;;;;;;0.20;0.20;;;;;;;20.10;59.97;101012.84;5154061;28;20084;-77
2022/08/27 02:08:51;;;;;;;0.25;0.25;;;;;;;20.09;59.34;101021.78;5184168;28;20034;-77
2022/08/27 02:11:22;;;;;;;0.68;0.68;;;;;;;20.10;59.21;101018.19;5167220;28;20037;-77
2022/08/27 02:13:52;;;;;;;1.48;0.60;;;;;;;20.02;59.83;101022.25;5155399;28;20506;-78
2022/08/27 02:16:23;;;;;;;0.55;0.55;;;;;;;20.01;60.16;101026.75;5168949;28;20038;-78
2022/08/27 02:18:53;;;;;;;0.30;0.30;;;;;;;19.98;59.45;101024.25;5168760;28;20048;-78
2022/08/27 02:21:24;;;;;;;0.22;0.22;;;;;;;19.95;59.32;101014.66;5195194;28;20212;-80
2022/08/27 02:23:55;;;;;;;0.20;0.20;;;;;;;19.95;58.99;101019.97;5189098;28;20061;-78
2022/08/27 02:26:26;;;;;;;0.30;0.30;;;;;;;19.95;59.40;101016.47;5169766;28;20026;-78
2022/08/27 02:28:59;;;;;;;0.20;0.20;;;;;;;19.92;59.78;101019.31;5170117;28;20054;-78
2022/08/27 02:31:30;;;;;;;0.20;0.20;;;;;;;19.88;60.06;101018.66;5195061;28;20151;-77
2022/08/27 02:34:01;;;;;;;0.30;0.30;;;;;;;19.89;58.92;101024.81;5172259;28;20484;-77
2022/08/27 02:36:32;;;;;;;1.27;0.60;;;;;;;19.89;59.49;101030.16;5170454;28;20034;-78
2022/08/27 02:39:04;;;;;;;3.67;0.98;;;;;;;19.88;59.49;101023.97;5148415;28;20041;-78
2022/08/27 02:41:41;;;;;;;0.30;0.30;;;;;;;19.83;59.44;101020.72;5186251;28;20080;-77
2022/08/27 02:44:11;;;;;;;0.45;0.45;;;;;;;19.85;59.41;101023.31;5162268;28;20537;-77
2022/08/27 02:46:42;;;;;;;1.00;0.50;;;;;;;19.84;59.58;101016.25;5153266;28;20034;-78
2022/08/27 02:49:14;;;;;;;0.20;0.20;;;;;;;19.86;58.82;101017.88;5154031;28;20403;-78
2022/08/27 02:51:44;;;;;;;0.40;0.40;;;;;;;19.86;59.97;101015.22;5173101;28;20041;-78
2022/08/27 02:54:15;;;;;;;0.30;0.30;;;;;;;19.81;59.41;101020.78;5175035;28;20041;-78
2022/08/27 02:56:45;;;;;;;0.35;0.35;;;;;;;19.76;60.04;101020.22;5183167;28;20040;-77
2022/08/27 02:59:16;;;;;;;0.20;0.20;;;;;;;19.79;59.33;101019.19;5167624;28;20049;-78
2022/08/27 03:01:50;;;;;;;0.40;0.40;;;;;;;19.79;59.26;101016.53;5184409;28;20033;-77
2022/08/27 03:04:21;;;;;;;0.50;0.50;;;;;;;19.72;60.65;101008.03;5156852;28;20064;-78
2022/08/27 03:06:53;;;;;;;8.10;0.77;;;;;;;19.69;59.50;101013.56;5150681;28;20639;-77
2022/08/27 03:09:26;;;;;;;0.20;0.20;;;;;;;19.68;59.20;101009.19;5130397;28;20037;-78
2022/08/27 03:11:57;;;;;;;0.38;0.38;;;;;;;19.66;59.38;101003.97;5137678;28;20067;-78
2022/08/27 03:14:28;;;;;;;0.20;0.20;;;;;;;19.70;59.60;101007.31;5169412;28;20045;-78
2022/08/27 03:18:16;;;;;;;0.10;0.10;;;;;;;19.72;59.93;101008.03;5184515;28;20101;-78
2022/08/27 03:19:49;;;;;;;0.20;0.20;;;;;;;19.69;59.15;101008.25;5150747;28;20420;-78
2022/08/27 03:22:20;;;;;;;0.25;0.25;;;;;;;19.71;59.46;101005.47;5152415;28;20033;-77
2022/08/27 03:24:50;;;;;;;0.47;0.47;;;;;;;19.66;59.35;101008.44;5185773;28;20221;-78
2022/08/27 03:27:24;;;;;;;0.30;0.30;;;;;;;19.58;59.36;101000.06;5184530;28;20025;-78
2022/08/27 03:29:54;;;;;;;0.10;0.10;;;;;;;19.59;59.21;101001.78;5133592;28;20025;-78
2022/08/27 03:32:25;;;;;;;0.32;0.32;;;;;;;19.56;60.08;101008.13;5181582;28;20029;-78
2022/08/27 03:34:57;;;;;;;0.20;0.20;;;;;;;19.55;59.48;101003.75;5172456;28;20026;-78
2022/08/27 03:37:28;;;;;;;0.30;0.30;;;;;;;19.61;59.38;101002.53;5182597;28;20276;-77
2022/08/27 03:39:58;;;;;;;0.63;0.63;;;;;;;19.60;58.86;101008.81;5176257;28;20033;-77
2022/08/27 03:42:29;;;;;;;0.95;0.90;;;;;;;19.54;59.18;101003.88;5175801;28;20077;-78
2022/08/27 03:45:07;;;;;;;0.20;0.20;;;;;;;19.54;59.83;101003.88;5143019;28;20052;-78
2022/08/27 03:47:38;;;;;;;0.30;0.30;;;;;;;19.51;59.77;101002.22;5167173;28;20034;-78
2022/08/27 03:50:09;;;;;;;0.45;0.45;;;;;;;19.55;59.49;101002.88;5153528;28;20022;-77
2022/08/27 03:52:40;;;;;;;0.30;0.30;;;;;;;19.56;59.22;100996.63;5153241;28;20044;-77
2022/08/27 03:55:11;;;;;;;0.10;0.10;;;;;;;19.48;59.17;100995.28;5171556;28;20457;-78
2022/08/27 03:57:42;;;;;;;6.88;1.92;;;;;;;19.47;59.86;101009.53;5167287;28;20037;-78
2022/08/27 04:00:15;;;;;;;0.50;0.50;;;;;;;19.48;59.55;101000.59;5165175;28;20061;-77
2022/08/27 04:02:46;;;;;;;0.50;0.50;;;;;;;19.49;59.25;101007.63;5190083;28;20061;-78
2022/08/27 04:05:17;;;;;;;0.20;0.20;;;;;;;19.49;59.86;101012.13;5178437;28;20038;-77
2022/08/27 04:07:48;;;;;;;0.20;0.20;;;;;;;19.45;59.80;101016.78;5168101;28;21044;-78
2022/08/27 04:10:19;;;;;;;0.30;0.25;;;;;;;19.41;59.66;101009.91;5164257;28;20666;-77
2022/08/27 04:12:50;;;;;;;0.38;0.38;;;;;;;19.43;59.26;101013.34;5131678;28;20046;-78
2022/08/27 04:15:20;;;;;;;0.63;0.63;;;;;;;19.43;60.34;101021.31;5180913;28;20034;-78
2022/08/27 04:17:51;;;;;;;0.30;0.30;;;;;;;19.42;59.88;101019.59;5181768;28;20117;-78
2022/08/27 04:20:21;;;;;;;0.40;0.40;;;;;;;19.39;59.73;101025.09;5185590;28;20076;-78
2022/08/27 04:22:52;;;;;;;0.30;0.30;;;;;;;19.38;59.52;101018.06;5169636;28;20042;-78
2022/08/27 04:25:25;;;;;;;;;;;;;;;19.42;59.33;101022.28;5179907;28;20045;-78
2022/08/27 04:27:56;;;;;;;0.68;0.68;;;;;;;19.37;59.80;101021.69;5153989;28;19918;-78
2022/08/27 04:30:27;;;;;;;0.30;0.30;;;;;;;19.38;59.67;101023.38;5151157;28;20026;-78
2022/08/27 04:32:58;;;;;;;0.20;0.20;;;;;;;19.40;59.92;101034.78;5167372;28;20033;-78
2022/08/27 04:35:29;;;;;;;1.45;1.30;;;;;;;19.35;59.87;101036.88;5165756;28;20035;-78
2022/08/27 04:38:00;;;;;;;0.30;0.30;;;;;;;19.37;60.64;101036.78;5151122;28;20054;-78
2022/08/27 04:43:21;;;;;;;0.20;0.20;;;;;;;19.33;59.89;101038.78;5183298;28;20056;-78
2022/08/27 04:45:55;;;;;;;0.30;0.30;;;;;;;19.33;60.07;101044.09;5184776;28;20017;-78
2022/08/27 04:48:25;;;;;;;0.28;0.28;;;;;;;19.32;60.47;101043.25;5136164;28;20093;-78
2022/08/27 04:50:56;;;;;;;0.30;0.30;;;;;;;19.32;59.90;101042.38;5175409;28;20026;-78
2022/08/27 04:53:27;;;;;;;0.70;0.65;;;;;;;19.37;59.83;101044.78;5175456;28;20066;-77
2022/08/27 04:55:58;;;;;;;0.30;0.30;;;;;;;19.30;59.69;101046.91;5188326;28;20062;-78
2022/08/27 04:58:28;;;;;;;1.55;1.05;;;;;;;19.28;59.89;101048.84;5132569;28;20074;-77
2022/08/27 05:01:00;;;;;;;0.75;0.60;;;;;;;19.32;59.72;101045.03;5153159;28;20113;-77
2022/08/27 05:03:33;;;;;;;0.20;0.20;;;;;;;19.27;60.46;101039.13;5132007;28;20060;-78
2022/08/27 05:06:07;;;;;;;2.97;1.42;;;;;;;19.27;60.15;101047.13;5175342;28;20026;-77
2022/08/27 05:08:38;;;;;;;0.75;0.75;;;;;;;19.27;60.45;101044.47;5162670;28;20045;-77
2022/08/27 05:11:13;;;;;;;2.17;0.40;;;;;;;19.24;60.14;101050.81;5177772;28;20087;-78
2022/08/27 05:13:45;;;;;;;0.28;0.28;;;;;;;19.30;59.41;101054.91;5156515;28;20623;-78
2022/08/27 05:16:19;;;;;;;0.63;0.50;;;;;;;19.28;60.57;101056.81;5160586;28;20415;-77
2022/08/27 05:18:51;;;;;;;0.28;0.28;;;;;;;19.25;60.60;101057.00;5173114;28;20588;-78
2022/08/27 05:21:25;;;;;;;0.70;0.70;;;;;;;19.24;60.70;101055.28;5149646;28;20072;-77
2022/08/27 05:23:58;;;;;;;2.75;1.55;;;;;;;19.18;61.12;101052.03;5164336;28;20042;-77
2022/08/27 05:26:31;;;;;;;0.73;0.73;;;;;;;19.22;60.45;101055.38;5183291;28;20089;-77
2022/08/27 05:29:03;;;;;;;2.38;0.82;;;;;;;19.17;60.61;101052.97;5144167;28;20065;-78
2022/08/27 05:31:40;;;;;;;0.20;0.20;;;;;;;19.17;60.59;101060.13;5174413;28;20037;-78
2022/08/27 05:34:14;;;;;;;0.28;0.28;;;;;;;19.17;60.08;101066.28;5159337;28;20030;-77
2022/08/27 05:36:45;;;;;;;1.50;0.82;;;;;;;19.14;60.41;101061.13;5156841;28;20060;-78
2022/08/27 05:39:16;;;;;;;5.40;0.30;;;;;;;19.17;60.20;101058.28;5154574;28;20042;-78
2022/08/27 05:41:47;;;;;;;0.55;0.55;;;;;;;19.18;60.28;101057.34;5168735;28;20038;-80
2022/08/27 05:44:18;;;;;;;0.20;0.20;;;;;;;19.25;60.61;101057.00;5159765;28;20049;-80
2022/08/27 05:46:49;;;;;;;0.55;0.55;;;;;;;19.17;60.93;101068.09;5154785;28;20037;-78
2022/08/27 05:49:19;;;;;;;0.30;0.30;;;;;;;19.19;60.27;101068.84;5185081;28;20045;-79
2022/08/27 05:51:50;;;;;;;0.57;0.57;;;;;;;19.15;60.27;101073.47;5171322;28;20037;-78
2022/08/27 05:54:23;;;;;;;0.40;0.40;;;;;;;19.15;60.24;101068.16;5166972;28;20526;-79
2022/08/27 05:56:54;;;;;;;0.20;0.20;;;;;;;19.15;60.68;101054.00;5176209;28;20033;-78
2022/08/27 06:02:23;;;;;;;0.70;0.68;;;;;;;19.18;61.10;101068.00;5149195;28;20973;-80
2022/08/27 06:04:55;;;;;;;0.22;0.22;;;;;;;19.13;60.79;101067.38;5170317;28;20191;-79
2022/08/27 06:07:25;;;;;;;0.90;0.82;;;;;;;19.17;61.29;101068.09;5146515;28;20800;-80
2022/08/27 06:09:59;;;;;;;0.20;0.20;;;;;;;19.17;60.40;101068.09;5156733;28;20108;-78
2022/08/27 06:12:30;;;;;;;0.30;0.30;;;;;;;19.12;61.75;101068.34;5148855;28;20057;-79
2022/08/27 06:15:10;;;;;;;1.10;1.00;;;;;;;19.08;61.06;101072.13;5157012;28;20498;-79
2022/08/27 06:17:41;;;;;;;1.25;0.57;;;;;;;19.13;60.48;101080.69;5145411;28;20045;-78
2022/08/27 06:20:11;;;;;;;0.80;0.80;;;;;;;19.10;60.09;101072.91;5179581;28;20025;-80
2022/08/27 06:22:43;;;;;;;0.30;0.30;;;;;;;19.06;60.19;101076.66;5166344;28;20103;-78
2022/08/27 06:25:14;;;;;;;11.63;1.92;;;;;;;19.01;61.37;101078.75;5170103;28;20038;-78
2022/08/27 06:27:45;;;;;;;0.20;0.20;;;;;;;18.96;61.36;101081.66;5161013;28;20125;-77
2022/08/27 06:30:16;;;;;;;0.20;0.20;;;;;;;19.01;60.96;101078.75;5182791;28;20014;-78
2022/08/27 06:32:50;;;;;;;0.20;0.20;;;;;;;19.03;60.88;101082.19;5183140;28;20045;-78
2022/08/27 06:35:21;;;;;;;0.20;0.20;;;;;;;19.00;61.00;101077.03;5168429;28;20040;-78
2022/08/27 06:37:54;;;;;;;0.40;0.40;;;;;;;18.99;61.27;101077.97;5157335;28;20037;-78
2022/08/27 06:40:25;;;;;;;0.20;0.20;;;;;;;18.98;61.25;101071.81;5167879;28;20116;-79
2022/08/27 06:42:55;;;;;;;0.90;0.68;;;;;;;18.97;61.48;101079.84;5150123;28;20075;-79
2022/08/27 06:45:26;;;;;;;0.75;0.65;;;;;;;18.96;60.87;101079.00;5158167;28;20451;-79
2022/08/27 06:47:56;;;;;;;0.88;0.82;;;;;;;19.01;60.31;101076.06;5167266;28;20120;-78
2022/08/27 06:50:27;;;;;;;0.73;0.63;;;;;;;18.97;60.86;101078.06;5147899;28;20121;-77
2022/08/27 06:52:57;;;;;;;0.40;0.40;;;;;;;18.94;60.84;101074.72;5158120;28;20049;-78
2022/08/27 06:55:31;;;;;;;0.65;0.65;;;;;;;18.93;61.31;101065.88;5182353;28;20661;-79
2022/08/27 06:58:01;;;;;;;0.22;0.22;;;;;;;18.94;61.10;101074.72;5150760;28;20695;-78
2022/08/27 07:00:32;;;;;;;0.35;0.35;;;;;;;18.90;61.31;101073.13;5183485;28;20056;-80
2022/08/27 07:03:05;;;;;;;1.05;0.95;;;;;;;18.90;61.14;101068.69;5158212;28;20176;-78
2022/08/27 07:05:44;;;;;;;1.90;0.90;;;;;;;18.95;61.21;101079.09;5149230;28;20220;-78
2022/08/27 07:08:15;;;;;;;0.95;0.95;;;;;;;18.91;61.29;101069.53;5165955;28;20052;-79
2022/08/27 07:10:46;;;;;;;0.40;0.40;;;;;;;18.93;60.59;101070.34;5170074;28;20013;-78
2022/08/27 07:13:21;;;;;;;0.45;0.45;;;;;;;18.92;60.84;101065.94;5181376;28;20042;-79
2022/08/27 07:15:52;;;;;;;0.20;0.20;;;;;;;18.90;60.98;101070.47;5183172;28;20064;-78
2022/08/27 07:18:23;;;;;;;0.20;0.20;;;;;;;18.91;60.96;101067.75;5178652;28;20038;-78
2022/08/27 07:20:55;;;;;;;;;;;;;;;18.92;60.67;101071.25;5159005;28;20458;-78
2022/08/27 07:23:26;;;;;;;0.22;0.22;;;;;;;18.93;60.97;101073.00;5176801;28;20007;-78
2022/08/27 07:25:56;;;;;;;0.38;0.38;;;;;;;18.97;60.64;101071.88;5170105;28;20622;-78
2022/08/27 07:28:30;;;;;;;0.85;0.40;;;;;;;18.98;60.69;101073.59;5150434;28;20044;-77
2022/08/27 07:31:01;;;;;;;1.23;0.77;;;;;;;18.99;60.89;101078.84;5162128;28;20022;-78
2022/08/27 07:33:32;;;;;;;0.43;0.40;;;;;;;18.95;61.01;101079.94;5145256;28;20046;-77
2022/08/27 07:36:06;;;;;;;0.38;0.38;;;;;;;18.97;60.61;101074.53;5161574;28;20033;-77
2022/08/27 07:38:37;;;;;;;0.90;0.85;;;;;;;18.96;61.23;101084.31;5149962;28;20518;-79
2022/08/27 07:41:12;;;;;;;0.20;0.20;;;;;;;19.02;60.35;101083.97;5174272;28;20034;-80
2022/08/27 07:46:31;;;;;;;17.02;1.35;;;;;;;19.00;60.59;101090.31;5188848;28;20664;-79
2022/08/27 07:49:02;;;;;;;0.30;0.30;;;;;;;18.97;60.42;101088.69;5163695;28;20125;-79
2022/08/27 07:51:36;;;;;;;0.65;0.65;;;;;;;18.98;60.96;101092.19;5180423;28;20034;-80
2022/08/27 07:54:06;;;;;;;0.20;0.20;;;;;;;19.01;60.53;101094.69;5158373;28;20072;-79
2022/08/27 07:56:37;;;;;;;0.20;0.20;;;;;;;19.09;59.96;101088.94;5156881;28;20133;-80
2022/08/27 07:59:11;;;;;;;0.20;0.20;;;;;;;19.03;60.28;101095.47;5163355;28;20639;-79
2022/08/27 08:01:59;;;;;;;0.25;0.25;;;;;;;19.02;60.37;101088.44;5177548;28;20113;-81
2022/08/27 08:04:30;;;;;;;0.40;0.40;;;;;;;19.01;60.09;101095.53;5166903;28;20048;-81
2022/08/27 08:07:01;;;;;;;0.20;0.20;;;;;;;19.02;60.28;101093.75;5164631;28;20581;-80
2022/08/27 08:09:34;;;;;;;0.52;0.52;;;;;;;19.04;60.10;101089.22;5145663;28;20863;-79
2022/08/27 08:12:06;;;;;;;1.23;0.60;;;;;;;19.06;60.22;101094.44;5161778;28;20588;-78
2022/08/27 08:14:39;;;;;;;0.55;0.55;;;;;;;19.10;59.80;101095.97;5163530;28;20041;-79
2022/08/27 08:17:09;;;;;;;0.20;0.20;;;;;;;19.06;59.96;101097.09;5201734;28;20105;-79
2022/08/27 08:19:40;;;;;;;0.82;0.82;;;;;;;19.05;59.99;101095.38;5170069;28;20072;-80
2022/08/27 08:22:10;;;;;;;0.52;0.52;;;;;;;19.07;59.99;101106.78;5150040;28;20034;-77
2022/08/27 08:24:41;;;;;;;1.55;0.60;;;;;;;19.08;60.11;101105.84;5166964;28;20022;-78
2022/08/27 08:27:15;;;;;;;0.30;0.30;;;;;;;19.10;60.02;101114.56;5181710;28;20033;-77
2022/08/27 08:29:47;;;;;;;0.25;0.25;;;;;;;19.11;59.84;101108.31;5182429;28;20057;-77
2022/08/27 08:32:17;;;;;;;3.40;1.70;;;;;;;19.12;60.02;101110.03;5147537;28;20030;-77
2022/08/27 08:34:49;;;;;;;0.73;0.45;;;;;;;19.17;60.03;101113.31;5149301;28;20255;-77
2022/08/27 08:37:19;;;;;;;0.32;0.32;;;;;;;19.18;59.95;101115.00;5134419;28;20037;-77
2022/08/27 08:39:50;;;;;;;0.30;0.30;;;;;;;19.19;59.73;101117.59;5162476;28;20255;-77
2022/08/27 08:42:29;;;;;;;0.77;0.77;;;;;;;19.16;59.87;101117.75;5183636;28;20022;-76
2022/08/27 08:45:20;;;;;;;0.40;0.40;;;;;;;19.24;59.45;101113.78;5174896;28;20022;-78
2022/08/27 08:48:00;;;;;;;0.20;0.20;;;;;;;19.27;59.28;101119.78;5129245;28;20038;-78
2022/08/27 08:50:50;;;;;;;0.98;0.70;;;;;;;19.19;59.88;101116.72;5172122;28;20128;-77
2022/08/27 08:53:33;;;;;;;0.35;0.35;;;;;;;19.19;59.68;101122.91;5166766;28;20102;-77
2022/08/27 08:56:11;;;;;;;0.50;0.50;;;;;;;19.21;59.88;101132.59;5182414;28;20026;-77
2022/08/27 08:58:42;;;;;;;0.30;0.30;;;;;;;19.31;59.24;101125.78;5186145;28;20046;-76
2022/08/27 09:01:17;;;;;;;0.45;0.45;;;;;;;19.29;59.43;101128.53;5144551;28;20030;-77
2022/08/27 09:03:55;;;;;;;0.70;0.57;;;;;;;19.32;59.16;101132.81;5172139;28;20054;-77
2022/08/27 09:06:59;;;;;;;0.40;0.40;;;;;;;19.28;59.57;101133.97;5176488;28;20038;-78
2022/08/27 09:09:38;;;;;;;9.00;1.73;;;;;;;19.42;59.40;101143.81;5133687;28;20064;-78
2022/08/27 09:12:21;;;;;;;2.10;0.98;;;;;;;19.42;59.60;101139.34;5168210;28;20036;-78
2022/08/27 09:14:57;;;;;;;0.47;0.45;;;;;;;19.38;59.50;101137.78;5153808;28;20068;-79
2022/08/27 09:17:28;;;;;;;0.30;0.30;;;;;;;19.32;59.39;101128.38;5148592;28;20659;-79
2022/08/27 09:19:58;;;;;;;1.15;1.00;;;;;;;19.42;60.01;101139.34;5151576;28;20504;-79
2022/08/27 09:22:55;;;;;;;0.40;0.40;;;;;;;19.40;59.37;101135.06;5135098;28;20045;-80
2022/08/27 09:25:30;;;;;;;8.25;0.65;;;;;;;19.35;60.03;101138.81;5167890;28;20092;-80
2022/08/27 09:31:18;;;;;;;0.30;0.30;;;;;;;19.46;59.28;101138.19;5180645;28;20045;-81
2022/08/27 09:33:49;;;;;;;0.63;0.63;;;;;;;19.52;58.95;101146.78;5147465;28;20048;-80
2022/08/27 09:36:19;;;;;;;0.73;0.70;;;;;;;19.55;58.78;101149.25;5158986;28;20779;-80
2022/08/27 09:38:57;;;;;;;0.80;0.80;;;;;;;19.51;58.82;101143.25;5166928;28;20034;-80
2022/08/27 09:41:40;;;;;;;0.32;0.32;;;;;;;19.49;59.03;101146.03;5180992;28;20113;-80
2022/08/27 09:44:16;;;;;;;0.28;0.28;;;;;;;19.49;59.14;101138.03;5149434;28;20483;-80
2022/08/27 09:47:01;;;;;;;1.00;0.73;;;;;;;19.51;59.27;101135.28;5168393;28;20022;-80
2022/08/27 09:49:35;;;;;;;0.85;0.85;;;;;;;19.57;58.72;101139.38;5168283;28;20102;-82
2022/08/27 09:52:08;;;;;;;1.80;1.15;;;;;;;19.59;58.96;101150.81;5184504;28;20038;-79
2022/08/27 09:54:46;;;;;;;1.08;1.00;;;;;;;19.61;59.02;101148.94;5157518;28;20041;-79
2022/08/27 09:57:39;;;;;;;5.93;1.77;;;;;;;19.65;58.90;101146.00;5153489;28;20026;-79
2022/08/27 10:00:16;;;;;;;2.63;1.48;;;;;;;19.69;59.02;101145.78;5144922;28;20034;-79
2022/08/27 10:02:52;;;;;;;1.45;1.25;;;;;;;19.65;59.34;101150.44;5170936;28;20128;-79
2022/08/27 10:05:38;;;;;;;0.60;0.60;;;;;;;19.76;58.89;101145.34;5175649;28;20029;-79
2022/08/27 10:08:42;;;;;;;0.55;0.55;;;;;;;19.84;58.52;101144.03;5170162;28;20068;-79
2022/08/27 10:11:24;;;;;;;0.85;0.82;;;;;;;19.94;58.14;101139.91;5163469;28;20018;-79
2022/08/27 10:14:22;;;;;;;0.50;0.50;;;;;;;19.89;58.35;101141.97;5148206;28;20054;-79
2022/08/27 10:16:59;;;;;;;0.47;0.47;;;;;;;19.90;58.50;101146.38;5167731;28;20038;-79
2022/08/27 10:19:52;;;;;;;0.50;0.50;;;;;;;19.92;58.52;101144.47;5150810;28;20046;-79
2022/08/27 10:22:55;;;;;;;0.55;0.52;;;;;;;19.96;58.01;101143.31;5144960;28;20042;-80
2022/08/27 10:25:44;;;;;;;1.05;0.93;;;;;;;20.06;57.66;101141.81;5166559;28;20133;-79
2022/08/27 10:28:25;;;;;;;0.50;0.50;;;;;;;20.02;58.04;101136.78;5155292;28;20038;-80
2022/08/27 10:31:15;;;;;;;2.47;1.05;;;;;;;20.04;58.27;101141.06;5185511;28;20037;-81
2022/08/27 10:34:10;;;;;;;0.75;0.75;;;;;;;20.15;57.69;101142.22;5188363;28;20289;-79
2022/08/27 10:36:56;;;;;;;1.08;1.00;;;;;;;20.24;57.25;101133.66;5151056;28;20069;-79
2022/08/27 10:39:45;;;;;;;1.48;0.57;;;;;;;20.20;57.97;101140.16;5178112;28;20049;-79
2022/08/27 10:42:37;;;;;;;1.95;0.50;;;;;;;20.21;57.87;101131.19;5147928;28;20098;-78
2022/08/27 10:45:16;;;;;;;0.30;0.30;;;;;;;20.26;58.02;101139.75;5149035;28;20534;-80
2022/08/27 10:47:59;;;;;;;0.40;0.40;;;;;;;20.32;58.04;101133.22;5146742;28;20107;-80
2022/08/27 10:50:41;;;;;;;4.05;1.58;;;;;;;20.33;57.94;101141.09;5166757;28;20029;-80
2022/08/27 10:53:26;;;;;;;2.05;1.77;;;;;;;20.38;57.63;101136.34;5151329;28;20133;-79
2022/08/27 10:56:28;;;;;;;1.30;1.20;;;;;;;20.43;57.58;101136.03;5183108;28;20033;-81
2022/08/27 10:59:16;;;;;;;1.07;1.03;;;;;;;20.52;57.86;101134.63;5123728;28;20072;-79
2022/08/27 11:01:58;;;;;;;0.88;0.88;;;;;;;20.52;57.49;101127.47;5180464;28;20022;-79
2022/08/27 11:04:42;;;;;;;0.20;0.20;;;;;;;20.73;56.93;101137.78;5199096;28;20026;-78
2022/08/27 11:07:19;;;;;;;0.85;0.77;;;;;;;20.75;56.94;101136.72;5196649;28;20028;-81
2022/08/27 11:09:59;;;;;;;0.68;0.68;;;;;;;20.74;57.13;101127.03;5142276;28;20061;-81
2022/08/27 11:12:45;;;;;;;0.90;0.90;;;;;;;20.79;56.98;101137.38;5145162;28;20684;-79
2022/08/27 11:15:30;;;;;;;2.50;0.85;;;;;;;20.82;57.21;101131.00;5161111;28;20026;-78
2022/08/27 11:18:44;;;;;;;0.47;0.47;;;;;;;20.88;56.96;101135.94;5168303;28;20251;-79
2022/08/27 11:21:39;;;;;;;2.42;1.55;;;;;;;20.97;56.79;101130.00;5160101;28;20034;-79
2022/08/27 11:24:21;;;;;;;0.35;0.35;;;;;;;21.00;56.27;101135.16;5152525;28;20046;-79
2022/08/27 11:26:56;;;;;;;0.30;0.30;;;;;;;21.01;56.37;101125.34;5189795;28;20033;-78
2022/08/27 11:29:31;;;;;;;0.80;0.80;;;;;;;21.07;56.63;101125.81;5167922;28;20095;-79
2022/08/27 11:32:14;;;;;;;0.40;0.40;;;;;;;21.13;56.46;101131.69;5169534;28;20033;-79
2022/08/27 11:35:12;;;;;;;3.30;0.57;;;;;;;21.18;56.13;101126.91;5184634;28;20042;-80
2022/08/27 11:38:10;;;;;;;0.80;0.50;;;;;;;21.19;56.16;101133.97;5150814;28;20990;-80
2022/08/27 11:41:18;;;;;;;0.38;0.38;;;;;;;21.29;55.69;101134.22;5164603;28;20049;-80
2022/08/27 11:43:53;;;;;;;0.28;0.28;;;;;;;21.25;55.81;101122.88;5175392;28;20088;-79
2022/08/27 11:46:42;;;;;;;0.25;0.25;;;;;;;21.30;55.70;101128.75;5186300;28;20113;-80
2022/08/27 11:49:29;;;;;;;0.20;0.20;;;;;;;21.33;55.67;101125.91;5154733;28;20574;-81
2022/08/27 11:52:12;;;;;;;1.05;0.95;;;;;;;21.34;55.44;101122.28;5186744;28;20037;-80
2022/08/27 11:54:50;;;;;;;0.25;0.25;;;;;;;21.44;55.05;101127.84;5149680;28;20177;-80
2022/08/27 11:57:32;;;;;;;0.30;0.30;;;;;;;21.47;55.09;101125.00;5190531;28;20022;-80
2022/08/27 12:00:12;;;;;;;0.73;0.68;;;;;;;21.52;55.29;101124.69;5175685;28;20054;-80
2022/08/27 12:02:44;;;;;;;0.45;0.45;;;;;;;21.52;54.57;101130.03;5155238;28;20554;-82
2022/08/27 12:05:23;;;;;;;0.30;0.30;;;;;;;21.55;54.61;101127.13;5149347;28;20095;-81
2022/08/27 12:07:54;;;;;;;0.40;0.40;;;;;;;21.51;54.21;101114.97;5147423;28;20604;-79
2022/08/27 12:10:54;;;;;;;0.20;0.20;;;;;;;21.55;54.42;101119.13;5165188;28;20022;-80
2022/08/27 12:13:33;;;;;;;0.32;0.32;;;;;;;21.57;54.32;101119.88;5144689;28;20033;-78
2022/08/27 12:16:27;;;;;;;0.40;0.40;;;;;;;21.60;54.55;101119.72;5147938;28;20118;-78